Terminal Aerodrome Forecast
Issued by NWS Cleveland, OH

Home | Current Version | Previous Version | Text Only | Print | Product List | Glossary On
Versions: 1 2 3 4 5 6 7 8 9 10 11 12 13 14 15 16 17 18 19 20 21 22 23 24
000
FTUS41 KCLE 270600 AAA
TAFMFD
TAF AMD
KMFD 270646Z 2707/2806 30003KT 6SM BR OVC018
      TEMPO 2709/2713 4SM -SN BKN009 OVC012
     FM271700 35005KT P6SM SCT012 OVC020
     FM280400 32003KT 6SM BR SKC=

USA.gov is the U.S. government's official web portal to all federal, state and local government web resources and services.